sensor_id;sensor_type;location;lat;lon;timestamp;P1;durP1;ratioP1;P2;durP2;ratioP2
71902;SDS011;59778;50.310;18.780;2024-01-06T00:05:21;116.60;;;26.50;;
71902;SDS011;59778;50.310;18.780;2024-01-06T00:20:43;112.40;;;25.93;;
71902;SDS011;59778;50.310;18.780;2024-01-06T00:36:04;100.70;;;24.43;;
71902;SDS011;59778;50.310;18.780;2024-01-06T00:51:25;88.63;;;22.53;;
71902;SDS011;59778;50.310;18.780;2024-01-06T01:06:47;80.60;;;23.93;;
71902;SDS011;59778;50.310;18.780;2024-01-06T01:22:08;97.30;;;23.63;;
71902;SDS011;59778;50.310;18.780;2024-01-06T01:37:29;103.97;;;26.93;;
71902;SDS011;59778;50.310;18.780;2024-01-06T01:52:50;72.70;;;20.03;;
71902;SDS011;59778;50.310;18.780;2024-01-06T02:08:11;71.10;;;22.37;;
71902;SDS011;59778;50.310;18.780;2024-01-06T02:23:34;75.27;;;23.93;;
71902;SDS011;59778;50.310;18.780;2024-01-06T02:38:55;76.90;;;23.13;;
71902;SDS011;59778;50.310;18.780;2024-01-06T02:54:17;68.17;;;21.73;;
71902;SDS011;59778;50.310;18.780;2024-01-06T03:09:38;55.40;;;21.53;;
71902;SDS011;59778;50.310;18.780;2024-01-06T03:25:02;68.37;;;23.33;;
71902;SDS011;59778;50.310;18.780;2024-01-06T03:40:25;60.07;;;20.97;;
71902;SDS011;59778;50.310;18.780;2024-01-06T03:55:46;72.33;;;23.53;;
71902;SDS011;59778;50.310;18.780;2024-01-06T04:11:08;65.60;;;23.87;;
71902;SDS011;59778;50.310;18.780;2024-01-06T04:26:29;65.50;;;25.13;;
71902;SDS011;59778;50.310;18.780;2024-01-06T04:41:50;60.80;;;22.97;;
71902;SDS011;59778;50.310;18.780;2024-01-06T04:57:11;70.67;;;25.60;;
71902;SDS011;59778;50.310;18.780;2024-01-06T05:12:32;73.60;;;27.53;;
71902;SDS011;59778;50.310;18.780;2024-01-06T05:27:53;67.43;;;25.00;;
71902;SDS011;59778;50.310;18.780;2024-01-06T05:43:15;70.30;;;27.47;;
71902;SDS011;59778;50.310;18.780;2024-01-06T05:58:36;80.13;;;28.00;;
71902;SDS011;59778;50.310;18.780;2024-01-06T06:13:57;81.87;;;29.47;;
71902;SDS011;59778;50.310;18.780;2024-01-06T06:29:19;77.23;;;29.90;;
71902;SDS011;59778;50.310;18.780;2024-01-06T06:44:41;70.27;;;28.27;;
71902;SDS011;59778;50.310;18.780;2024-01-06T07:00:03;74.77;;;29.77;;
71902;SDS011;59778;50.310;18.780;2024-01-06T07:15:24;63.13;;;26.37;;
71902;SDS011;59778;50.310;18.780;2024-01-06T07:30:45;82.63;;;29.63;;
71902;SDS011;59778;50.310;18.780;2024-01-06T07:46:06;85.93;;;34.60;;
71902;SDS011;59778;50.310;18.780;2024-01-06T08:01:28;91.20;;;32.63;;
71902;SDS011;59778;50.310;18.780;2024-01-06T08:16:49;82.07;;;33.87;;
71902;SDS011;59778;50.310;18.780;2024-01-06T08:32:10;93.27;;;36.60;;
71902;SDS011;59778;50.310;18.780;2024-01-06T08:47:33;91.03;;;35.90;;
71902;SDS011;59778;50.310;18.780;2024-01-06T09:02:55;101.67;;;37.63;;
71902;SDS011;59778;50.310;18.780;2024-01-06T09:18:16;100.27;;;37.47;;
71902;SDS011;59778;50.310;18.780;2024-01-06T09:33:37;129.07;;;49.23;;
71902;SDS011;59778;50.310;18.780;2024-01-06T09:48:59;129.67;;;51.53;;
71902;SDS011;59778;50.310;18.780;2024-01-06T10:04:23;132.70;;;49.30;;
71902;SDS011;59778;50.310;18.780;2024-01-06T10:19:45;111.53;;;43.37;;
71902;SDS011;59778;50.310;18.780;2024-01-06T10:35:23;115.23;;;42.73;;
71902;SDS011;59778;50.310;18.780;2024-01-06T10:50:45;173.93;;;64.70;;
71902;SDS011;59778;50.310;18.780;2024-01-06T11:06:08;127.93;;;50.27;;
71902;SDS011;59778;50.310;18.780;2024-01-06T11:21:34;137.00;;;56.10;;
71902;SDS011;59778;50.310;18.780;2024-01-06T11:36:56;115.83;;;51.00;;
71902;SDS011;59778;50.310;18.780;2024-01-06T11:52:18;149.93;;;52.07;;
71902;SDS011;59778;50.310;18.780;2024-01-06T12:07:40;116.93;;;40.53;;
71902;SDS011;59778;50.310;18.780;2024-01-06T12:23:02;91.67;;;36.07;;
71902;SDS011;59778;50.310;18.780;2024-01-06T12:38:26;110.30;;;41.67;;
71902;SDS011;59778;50.310;18.780;2024-01-06T12:53:51;91.07;;;35.87;;
71902;SDS011;59778;50.310;18.780;2024-01-06T13:09:13;97.77;;;36.67;;
71902;SDS011;59778;50.310;18.780;2024-01-06T13:24:37;58.00;;;25.87;;
71902;SDS011;59778;50.310;18.780;2024-01-06T13:39:59;48.17;;;18.43;;
71902;SDS011;59778;50.310;18.780;2024-01-06T13:55:20;42.43;;;18.07;;
71902;SDS011;59778;50.310;18.780;2024-01-06T14:10:44;64.30;;;21.70;;
71902;SDS011;59778;50.310;18.780;2024-01-06T14:26:06;63.13;;;27.33;;
71902;SDS011;59778;50.310;18.780;2024-01-06T14:41:27;58.53;;;23.90;;
71902;SDS011;59778;50.310;18.780;2024-01-06T14:56:49;67.43;;;25.60;;
71902;SDS011;59778;50.310;18.780;2024-01-06T15:12:11;76.53;;;27.33;;
71902;SDS011;59778;50.310;18.780;2024-01-06T15:27:32;61.93;;;23.20;;
71902;SDS011;59778;50.310;18.780;2024-01-06T15:42:54;71.70;;;31.03;;
71902;SDS011;59778;50.310;18.780;2024-01-06T15:58:15;117.13;;;40.20;;
71902;SDS011;59778;50.310;18.780;2024-01-06T16:13:38;90.87;;;31.53;;
71902;SDS011;59778;50.310;18.780;2024-01-06T16:28:59;59.33;;;22.47;;
71902;SDS011;59778;50.310;18.780;2024-01-06T16:44:21;55.90;;;19.33;;
71902;SDS011;59778;50.310;18.780;2024-01-06T16:59:42;47.23;;;19.00;;
71902;SDS011;59778;50.310;18.780;2024-01-06T17:15:04;57.43;;;22.20;;
71902;SDS011;59778;50.310;18.780;2024-01-06T17:30:25;55.70;;;21.40;;
71902;SDS011;59778;50.310;18.780;2024-01-06T17:45:46;52.33;;;21.77;;
71902;SDS011;59778;50.310;18.780;2024-01-06T18:01:08;49.73;;;18.07;;
71902;SDS011;59778;50.310;18.780;2024-01-06T18:16:29;175.73;;;66.20;;
71902;SDS011;59778;50.310;18.780;2024-01-06T18:31:50;138.50;;;39.43;;
71902;SDS011;59778;50.310;18.780;2024-01-06T18:47:12;78.20;;;33.90;;
71902;SDS011;59778;50.310;18.780;2024-01-06T19:02:35;80.03;;;27.83;;
71902;SDS011;59778;50.310;18.780;2024-01-06T19:17:56;85.70;;;26.77;;
71902;SDS011;59778;50.310;18.780;2024-01-06T19:33:17;72.53;;;25.93;;
71902;SDS011;59778;50.310;18.780;2024-01-06T19:48:38;44.13;;;16.23;;
71902;SDS011;59778;50.310;18.780;2024-01-06T20:04:01;43.83;;;15.03;;
71902;SDS011;59778;50.310;18.780;2024-01-06T20:19:22;29.93;;;11.97;;
71902;SDS011;59778;50.310;18.780;2024-01-06T20:34:45;37.67;;;14.47;;
71902;SDS011;59778;50.310;18.780;2024-01-06T20:50:10;32.73;;;12.60;;
71902;SDS011;59778;50.310;18.780;2024-01-06T21:05:31;34.67;;;14.83;;
71902;SDS011;59778;50.310;18.780;2024-01-06T21:20:53;33.50;;;13.53;;
71902;SDS011;59778;50.310;18.780;2024-01-06T21:36:14;30.17;;;11.70;;
71902;SDS011;59778;50.310;18.780;2024-01-06T21:51:48;32.03;;;12.67;;
71902;SDS011;59778;50.310;18.780;2024-01-06T22:07:10;36.93;;;14.47;;
71902;SDS011;59778;50.310;18.780;2024-01-06T22:22:31;33.33;;;13.27;;
71902;SDS011;59778;50.310;18.780;2024-01-06T22:37:52;32.10;;;11.97;;
71902;SDS011;59778;50.310;18.780;2024-01-06T22:53:13;32.33;;;11.90;;
71902;SDS011;59778;50.310;18.780;2024-01-06T23:08:35;25.67;;;11.53;;
71902;SDS011;59778;50.310;18.780;2024-01-06T23:23:58;27.90;;;10.37;;
71902;SDS011;59778;50.310;18.780;2024-01-06T23:39:19;18.87;;;7.77;;
71902;SDS011;59778;50.310;18.780;2024-01-06T23:54:41;28.10;;;11.97;;
